CheckWX is a tool to help pilots better visualize weather data.  It is not intended as a substitute for an official pre-flight weather briefing.

14:45:42 UTC

KDAA TAF
Davison AAF Airport
Fort Belvoir, Virginia, USA
TAF KDAA 271000Z 2710/2816 29012G18KT 9999 SCT045 540452 QNH2965INS BECMG 2712/2713 32015G35KT 9999 FEW045 510002 QNH2972INS BECMG 2722/2723 28012KT 9999 SCT060 520002 QNH2987INS BECMG 2804/2805 27006KT 9999 SCT040 BKN045 510205 QNH2998INS TX07/2721Z TNM02/2810Z

Feb-27@
10:00 UTC

Feb-27 @ 10:00 UTC

Feb-27@
12:00 UTC

Feb-27 @ 12:00 UTC

TAF KDAA 271000Z 2710/2816 29012G18KT 9999 SCT045 540452 QNH2965INS

Expired

Wind
  • 290° at 12 KTS
  • {Gusting to 18 KTS
Cloud Levels
  • Scattered at 4,500' AGL
Turbulence
< Occasional moderate in cloud turbulence expected at 4,500' AGL extending to 6,500' AGL

Feb-27@
12:00 UTC

Feb-27 @ 12:00 UTC

Feb-27@
22:00 UTC

Feb-27 @ 22:00 UTC

BECMG 2712/2713 32015G35KT 9999 FEW045 510002 QNH2972INS

Becoming

Becoming Conditions expected by Thu, Feb 27, 2020 @ 13:00 UTC

Wind
  • 320° at 15 KTS
  • {Gusting to 35 KTS
Cloud Levels
  • Few at 4,500' AGL
Turbulence
< Light turbulence expected at the surface extending to 2,000' AGL

Feb-27@
22:00 UTC

Feb-27 @ 22:00 UTC

Feb-28@
04:00 UTC

Feb-28 @ 04:00 UTC

BECMG 2722/2723 28012KT 9999 SCT060 520002 QNH2987INS

Becoming

Becoming Conditions expected by Thu, Feb 27, 2020 @ 23:00 UTC

Wind
  • 280° at 12 KTS
Cloud Levels
  • Scattered at 6,000' AGL
Turbulence
< Occasional moderate clear air turbulence expected at the surface extending to 2,000' AGL

Feb-28@
04:00 UTC

Feb-28 @ 04:00 UTC

Feb-28@
16:00 UTC

Feb-28 @ 16:00 UTC

BECMG 2804/2805 27006KT 9999 SCT040 BKN045 510205 QNH2998INS TX07/2721Z TNM02/2810Z

Becoming

Becoming Conditions expected by Fri, Feb 28, 2020 @ 05:00 UTC

Wind
  • 270° at 6 KTS
Cloud Levels
  • Scattered at 4,000' AGL
  • Broken at 4,500' AGL
Turbulence
< Light turbulence expected at 2,000' AGL extending to 7,000' AGL